Time;durP1;ratioP1;P1;durP2;ratioP2;P2;SDS_P1;SDS_P2;PMS_P1;PMS_P2;Temp;Humidity;BMP_temperature;BMP_pressure;BME280_temperature;BME280_humidity;BME280_pressure;Samples;Min_cycle;Max_cycle;Signal;HPM_P1;HPM_P2
2023/10/12 00:01:26;;;;;;;;;;;;;;;16.89;100.00;100355.53;5110637;28;19967;-76
2023/10/12 00:04:12;;;;;;;;;;;;;;;16.89;100.00;100361.13;5106116;28;19988;-77
2023/10/12 00:06:58;;;;;;;;;;;;;;;16.92;100.00;100366.06;5090254;28;19919;-76
2023/10/12 00:09:48;;;;;;;;;;;;;;;16.91;100.00;100365.25;5116770;28;19914;-76
2023/10/12 00:12:35;;;;;;;;;;;;;;;16.92;100.00;100371.66;5113641;28;20327;-77
2023/10/12 00:18:08;;;;;;;;;;;;;;;16.89;100.00;100375.97;5117418;28;19950;-76
2023/10/12 00:20:54;;;;;;;;;;;;;;;16.87;100.00;100383.91;5102189;28;19915;-77
2023/10/12 00:23:38;;;;;;;;;;;;;;;16.90;100.00;100385.19;5098139;28;19938;-76
2023/10/12 00:26:22;;;;;;;;;;;;;;;16.91;100.00;100375.63;5073314;28;19915;-76
2023/10/12 00:29:07;;;;;;;;;;;;;;;16.87;100.00;100374.66;5115014;28;19914;-76
2023/10/12 00:31:52;;;;;;;;;;;;;;;16.86;100.00;100385.06;5116899;27;20394;-77
2023/10/12 00:34:36;;;;;;;;;;;;;;;16.87;100.00;100386.69;5115510;28;19961;-76
2023/10/12 00:37:20;;;;;;;;;;;;;;;16.88;100.00;100388.38;5103570;28;20109;-76
2023/10/12 00:43:36;;;;;;;;;;;;;;;16.88;100.00;100370.69;5041491;28;20283;-76
2023/10/12 00:52:15;;;;;;;;;;;;;;;16.86;100.00;100351.41;5105075;28;19915;-76
2023/10/12 00:55:20;;;;;;;;;;;;;;;16.86;100.00;100361.81;5098500;28;19922;-76
2023/10/12 00:58:05;;;;;;;;;;;;;;;16.82;100.00;100361.66;5113873;28;20343;-76
2023/10/12 01:00:52;;;;;;;;;;;;;;;16.86;100.00;100362.63;5115237;28;20330;-76
2023/10/12 01:03:36;;;;;;;;;;;;;;;16.84;100.00;100358.53;5118174;28;19942;-76
2023/10/12 01:09:19;;;;;;;;;;;;;;;16.83;100.00;100356.88;5109334;28;19914;-76
2023/10/12 01:12:06;;;;;;;;;;;;;;;16.81;100.00;100362.00;5101681;28;19956;-76
2023/10/12 01:14:54;;;;;;;;;;;;;;;16.81;100.00;100373.22;5117846;28;19919;-76
2023/10/12 01:17:40;;;;;;;;;;;;;;;16.78;100.00;100363.50;5104242;28;19915;-76
2023/10/12 01:20:29;;;;;;;;;;;;;;;16.79;100.00;100361.53;5116907;28;19931;-76
2023/10/12 01:23:13;;;;;;;;;;;;;;;16.79;100.00;100356.72;5095598;28;19914;-76
2023/10/12 01:26:09;;;;;;;;;;;;;;;16.78;100.00;100351.47;5090404;28;19929;-77
2023/10/12 01:28:55;;;;;;;;;;;;;;;16.77;100.00;100353.47;5092111;28;20028;-76
2023/10/12 01:31:46;;;;;;;;;;;;;;;16.75;100.00;100356.56;5097592;27;19957;-77
2023/10/12 01:34:30;;;;;;;;;;;;;;;16.73;100.00;100358.88;5081426;28;19992;-76
2023/10/12 01:37:25;;;;;;;;;;;;;;;16.74;100.00;100360.53;5099182;28;19930;-77
2023/10/12 01:40:12;;;;;;;;;;;;;;;16.69;100.00;100352.31;5113763;28;20322;-77
2023/10/12 01:42:56;;;;;;;;;;;;;;;16.71;100.00;100357.56;5119837;28;19960;-77
2023/10/12 01:45:41;;;;;;;;;;;;;;;16.72;100.00;100357.25;5092142;28;19915;-76
2023/10/12 01:48:29;;;;;;;;;;;;;;;16.70;100.00;100351.16;5107210;28;19929;-76
2023/10/12 01:51:24;;;;;;;;;;;;;;;16.69;100.00;100349.50;5111235;28;19929;-76
2023/10/12 01:54:12;;;;;;;;;;;;;;;16.69;100.00;100355.13;5076221;28;19919;-76
2023/10/12 01:56:56;;;;;;;;;;;;;;;16.69;100.00;100343.91;5102988;28;19998;-77
2023/10/12 01:59:41;;;;;;;;;;;;;;;16.68;100.00;100338.63;5097405;28;20251;-76
2023/10/12 02:02:25;;;;;;;;;;;;;;;16.69;100.00;100343.09;5107379;28;19915;-76
2023/10/12 02:05:09;;;;;;;;;;;;;;;16.70;100.00;100348.34;5089934;28;20374;-76
2023/10/12 02:07:53;;;;;;;;;;;;;;;16.71;100.00;100349.97;5107263;28;20446;-76
2023/10/12 02:10:44;;;;;;;;;;;;;;;16.71;100.00;100338.75;5094547;28;20004;-76
2023/10/12 02:13:33;;;;;;;;;;;;;;;16.71;100.00;100338.75;5071120;28;19915;-77
2023/10/12 02:16:25;;;;;;;;;;;;;;;16.71;100.00;100343.53;5104444;28;19919;-76
2023/10/12 02:19:09;;;;;;;;;;;;;;;16.71;100.00;100341.56;5092566;28;19914;-76
2023/10/12 02:21:59;;;;;;;;;;;;;;;16.72;100.00;100336.81;5112927;28;19920;-76
2023/10/12 02:24:43;;;;;;;;;;;;;;;16.73;100.00;100330.84;5078234;28;19919;-76
2023/10/12 02:27:27;;;;;;;;;;;;;;;16.72;100.00;100332.00;5107008;28;20438;-76
2023/10/12 02:30:18;;;;;;;;;;;;;;;16.74;100.00;100338.09;5110986;28;19930;-76
2023/10/12 02:33:07;;;;;;;;;;;;;;;16.71;100.00;100333.16;5097450;28;19913;-76
2023/10/12 02:35:51;;;;;;;;;;;;;;;16.75;100.00;100334.13;5104254;28;19922;-76
2023/10/12 02:38:35;;;;;;;;;;;;;;;16.75;100.00;100322.91;5118431;28;19914;-76
2023/10/12 02:41:24;;;;;;;;;;;;;;;16.75;100.00;100322.91;5091991;28;19915;-76
2023/10/12 02:44:14;;;;;;;;;;;;;;;16.74;100.00;100335.31;5091993;28;19960;-76
2023/10/12 02:47:12;;;;;;;;;;;;;;;16.74;100.00;100337.25;5106359;28;19957;-76
2023/10/12 02:52:48;;;;;;;;;;;;;;;16.77;100.00;100331.03;5101541;28;19995;-76
2023/10/12 02:55:50;;;;;;;;;;;;;;;16.77;100.00;100342.25;5089063;28;20421;-77
2023/10/12 02:58:35;;;;;;;;;;;;;;;16.77;100.00;100347.00;5107057;28;19914;-77
2023/10/12 03:01:21;;;;;;;;;;;;;;;16.79;100.00;100336.28;5117932;28;19915;-77
2023/10/12 03:04:05;;;;;;;;;;;;;;;16.77;100.00;100347.84;5112734;28;19957;-76
2023/10/12 03:06:55;;;;;;;;;;;;;;;16.78;100.00;100359.88;5116803;28;20028;-76
2023/10/12 03:09:43;;;;;;;;;;;;;;;16.77;100.00;100359.06;5085718;28;19915;-76
2023/10/12 03:12:34;;;;;;;;;;;;;;;16.79;100.00;100355.91;5110704;28;19960;-76
2023/10/12 03:15:18;;;;;;;;;;;;;;;16.79;100.00;100347.50;5081030;28;19919;-76
2023/10/12 03:18:02;;;;;;;;;;;;;;;16.78;100.00;100354.28;5100945;28;20426;-76
2023/10/12 03:20:52;;;;;;;;;;;;;;;16.81;100.00;100354.41;5096887;28;20260;-76
2023/10/12 03:23:38;;;;;;;;;;;;;;;16.82;100.00;100344.00;5091610;28;19914;-77
2023/10/12 03:26:26;;;;;;;;;;;;;;;16.81;100.00;100354.41;5092522;28;19915;-77
2023/10/12 03:31:58;;;;;;;;;;;;;;;16.82;100.00;100355.22;5122079;28;19918;-77
2023/10/12 03:37:51;;;;;;;;;;;;;;;16.85;100.00;100354.53;5116712;28;19922;-76
2023/10/12 03:40:52;;;;;;;;;;;;;;;16.85;100.00;100351.75;5104102;28;19915;-77
2023/10/12 03:43:39;;;;;;;;;;;;;;;16.87;100.00;100341.00;5113340;28;19938;-76
2023/10/12 03:46:27;;;;;;;;;;;;;;;16.87;100.00;100335.41;5109731;28;19914;-77
2023/10/12 03:52:14;;;;;;;;;;;;;;;16.86;100.00;100356.22;5102572;28;20041;-76
2023/10/12 03:57:50;;;;;;;;;;;;;;;16.89;100.00;100369.53;5110821;28;20279;-76
2023/10/12 04:03:35;;;;;;;;;;;;;;;16.86;100.00;100370.22;5115856;28;19956;-77
2023/10/12 04:06:23;;;;;;;;;;;;;;;16.87;100.00;100360.63;5112156;28;20358;-77
2023/10/12 04:09:14;;;;;;;;;;;;;;;16.87;100.00;100353.03;5097521;28;19918;-76
2023/10/12 04:12:16;;;;;;;;;;;;;;;16.86;100.00;100356.22;5110576;28;20463;-76
2023/10/12 04:15:05;;;;;;;;;;;;;;;16.89;100.00;100347.94;5104048;28;19934;-76
2023/10/12 04:17:53;;;;;;;;;;;;;;;16.90;100.00;100355.16;5099648;28;19954;-77
2023/10/12 04:20:40;;;;;;;;;;;;;;;16.89;100.00;100352.72;5111339;28;19946;-76
2023/10/12 04:29:08;;;;;;;;;;;;;;;16.89;100.00;100355.53;5120718;28;20236;-77
2023/10/12 04:31:56;;;;;;;;;;;;;;;16.89;100.00;100347.94;5100775;27;20396;-77
2023/10/12 04:34:49;;;;;;;;;;;;;;;16.89;100.00;100339.50;5110007;28;20264;-77
2023/10/12 04:37:33;;;;;;;;;;;;;;;16.90;100.00;100332.72;5079312;28;19968;-77
2023/10/12 04:40:36;;;;;;;;;;;;;;;16.90;100.00;100327.13;5109361;28;19950;-76
2023/10/12 04:43:24;;;;;;;;;;;;;;;16.90;100.00;100329.91;5113795;28;19973;-77
2023/10/12 04:55:41;;;;;;;;;;;;;;;16.86;100.00;100328.97;5095448;28;19954;-78
2023/10/12 04:58:30;;;;;;;;;;;;;;;16.80;100.00;100319.13;5113200;28;19915;-77
2023/10/12 05:01:22;;;;;;;;;;;;;;;16.81;100.00;100315.16;5114611;28;20371;-77
2023/10/12 05:04:09;;;;;;;;;;;;;;;16.80;100.00;100321.94;5110170;28;19915;-77
2023/10/12 05:10:15;;;;;;;;;;;;;;;16.75;100.00;100333.31;5074554;28;19914;-77
2023/10/12 05:13:05;;;;;;;;;;;;;;;16.76;100.00;100334.94;5117595;28;20040;-77
2023/10/12 05:15:56;;;;;;;;;;;;;;;16.77;100.00;100336.63;5109332;28;19923;-77
2023/10/12 05:18:40;;;;;;;;;;;;;;;16.77;100.00;100344.19;5114345;28;19960;-77
2023/10/12 05:21:24;;;;;;;;;;;;;;;16.76;100.00;100340.56;5078333;28;19972;-78
2023/10/12 05:24:11;;;;;;;;;;;;;;;16.78;100.00;100343.06;5090939;28;20007;-77
2023/10/12 05:26:58;;;;;;;;;;;;;;;16.76;100.00;100346.16;5112978;28;19930;-77
2023/10/12 05:29:48;;;;;;;;;;;;;;;16.75;100.00;100348.16;5082027;28;19972;-77
2023/10/12 05:32:37;;;;;;;;;;;;;;;16.76;100.00;100351.78;5095541;28;19914;-77
2023/10/12 05:35:46;;;;;;;;;;;;;;;16.76;100.00;100360.19;5109256;28;20017;-77
2023/10/12 05:38:34;;;;;;;;;;;;;;;16.77;100.00;100366.63;5112835;28;19926;-77
2023/10/12 05:41:34;;;;;;;;;;;;;;;16.77;100.00;100370.28;5093695;28;19915;-78
2023/10/12 05:44:23;;;;;;;;;;;;;;;16.75;100.00;100370.59;5097239;28;19914;-78
2023/10/12 05:47:14;;;;;;;;;;;;;;;16.79;100.00;100381.16;5104896;28;20259;-78
2023/10/12 05:49:58;;;;;;;;;;;;;;;16.79;100.00;100375.53;5090779;28;19915;-78
2023/10/12 05:52:42;;;;;;;;;;;;;;;16.78;100.00;100373.91;5102735;28;19918;-78
2023/10/12 05:55:27;;;;;;;;;;;;;;;16.79;100.00;100378.34;5104079;28;19927;-77
2023/10/12 05:58:11;;;;;;;;;;;;;;;16.77;100.00;100383.47;5090203;28;19931;-77
2023/10/12 06:00:56;;;;;;;;;;;;;;;16.80;100.00;100378.03;5092671;28;19919;-78
2023/10/12 06:03:40;;;;;;;;;;;;;;;16.79;100.00;100384.78;5105654;28;19953;-78
2023/10/12 06:06:24;;;;;;;;;;;;;;;16.82;100.00;100386.06;5090214;28;19915;-78
2023/10/12 06:09:23;;;;;;;;;;;;;;;16.84;100.00;100380.97;5110503;28;19919;-78
2023/10/12 06:12:08;;;;;;;;;;;;;;;16.83;100.00;100384.94;5102595;28;19932;-79
2023/10/12 06:14:55;;;;;;;;;;;;;;;16.86;100.00;100389.88;5089540;28;19956;-76
2023/10/12 06:17:49;;;;;;;;;;;;;;;16.85;100.00;100391.00;5113193;28;20414;-76
2023/10/12 06:20:40;;;;;;;;;;;;;;;16.84;100.00;100392.19;5105012;28;19961;-77
2023/10/12 06:23:24;;;;;;;;;;;;;;;16.87;100.00;100385.88;5072939;28;20313;-77
2023/10/12 06:26:09;;;;;;;;;;;;;;;16.87;100.00;100381.09;5091377;28;20398;-77
2023/10/12 06:28:53;;;;;;;;;;;;;;;16.89;100.00;100386.38;5118518;28;19973;-77
2023/10/12 06:31:37;;;;;;;;;;;;;;;16.89;100.00;100377.97;5109000;27;20163;-77
2023/10/12 06:34:22;;;;;;;;;;;;;;;16.90;100.00;100383.22;5105190;28;19933;-77
2023/10/12 06:37:30;;;;;;;;;;;;;;;16.92;100.00;100394.09;5080615;28;20395;-78
2023/10/12 06:46:15;;;;;;;;;;;;;;;16.97;100.00;100405.13;5097976;28;19915;-76
2023/10/12 06:49:00;;;;;;;;;;;;;;;17.01;100.00;100414.50;5084374;28;19915;-76
2023/10/12 06:51:53;;;;;;;;;;;;;;;17.03;100.00;100415.00;5096861;28;19930;-76
2023/10/12 07:02:55;;;;;;;;;;;;;;;17.06;100.00;100414.31;5097079;28;19958;-76
2023/10/12 07:05:39;;;;;;;;;;;;;;;17.09;100.00;100416.44;5076804;28;19919;-76
2023/10/12 07:08:27;;;;;;;;;;;;;;;17.10;100.00;100408.84;5095917;28;20362;-76
2023/10/12 07:11:13;;;;;;;;;;;;;;;17.14;100.00;100413.44;5096681;28;20052;-76
2023/10/12 07:14:04;;;;;;;;;;;;;;;17.16;100.00;100416.72;5096514;28;20412;-77
2023/10/12 07:16:54;;;;;;;;;;;;;;;17.17;100.00;100423.97;5094669;28;19915;-76
2023/10/12 07:19:46;;;;;;;;;;;;;;;17.24;100.00;100423.41;5082843;28;20011;-76
2023/10/12 07:22:35;;;;;;;;;;;;;;;17.26;100.00;100425.91;5096582;28;19954;-76
2023/10/12 07:25:23;;;;;;;;;;;;;;;17.31;100.00;100428.50;5096699;28;19929;-76
2023/10/12 07:28:15;;;;;;;;;;;;;;;17.33;100.00;100437.41;5091589;28;20005;-76
2023/10/12 07:31:44;;;;;;;;;;;;;;;17.36;100.00;100436.72;5092365;28;19961;-76
2023/10/12 07:34:13;;;;;;;;;;;;;;;17.42;100.00;100424.13;5093339;28;19915;-76
2023/10/12 07:36:57;;;;;;;;;;;;;;;17.46;100.00;100427.06;5084403;28;20411;-76
2023/10/12 07:39:45;;;;;;;;;;;;;;;17.53;100.00;100436.59;5076346;28;20457;-76
2023/10/12 07:42:31;;;;;;;;;;;;;;;17.57;100.00;100434.72;5083664;28;20260;-76
2023/10/12 07:45:16;;;;;;;;;;;;;;;17.61;100.00;100429.25;5096362;28;19914;-76
2023/10/12 07:48:00;;;;;;;;;;;;;;;17.64;100.00;100429.38;5075587;28;19930;-76
2023/10/12 07:50:47;;;;;;;;;;;;;;;17.69;100.00;100433.13;5084833;28;19915;-76
2023/10/12 07:53:37;;;;;;;;;;;;;;;17.73;100.00;100446.16;5089582;28;19916;-76
2023/10/12 07:56:22;;;;;;;;;;;;;;;17.78;100.00;100439.53;5092274;28;19994;-76
2023/10/12 07:59:13;;;;;;;;;;;;;;;17.85;100.00;100446.22;5089209;28;20359;-76
2023/10/12 08:02:07;;;;;;;;;;;;;;;17.89;100.00;100440.75;5099611;28;20363;-76
2023/10/12 08:04:58;;;;;;;;;;;;;;;17.98;100.00;100446.28;5099857;28;19957;-77
2023/10/12 08:13:32;;;;;;;;;;;;;;;18.11;100.00;100449.94;5087825;28;19968;-76
2023/10/12 08:16:25;;;;;;;;;;;;;;;18.19;100.00;100443.41;5085366;28;19918;-76
2023/10/12 08:19:23;;;;;;;;;;;;;;;18.24;100.00;100454.44;5099738;28;20260;-76
2023/10/12 08:22:26;;;;;;;;;;;;;;;18.29;100.00;100462.66;5079612;28;19916;-77
2023/10/12 08:25:10;;;;;;;;;;;;;;;18.33;100.00;100452.38;5097747;28;19935;-77
2023/10/12 08:28:05;;;;;;;;;;;;;;;18.39;100.00;100448.19;5093773;28;20221;-77
2023/10/12 08:31:00;;;;;;;;;;;;;;;18.45;100.00;100460.84;5083896;28;19950;-76
2023/10/12 08:33:49;;;;;;;;;;;;;;;18.51;100.00;100459.44;5099701;28;20347;-76
2023/10/12 08:36:46;;;;;;;;;;;;;;;18.54;100.00;100461.53;5095203;28;19923;-76
2023/10/12 08:39:48;;;;;;;;;;;;;;;18.58;100.00;100466.47;5089277;28;20363;-76
2023/10/12 08:42:55;;;;;;;;;;;;;;;18.63;100.00;100471.88;5079644;28;19970;-73
2023/10/12 08:45:39;;;;;;;;;;;;;;;18.68;100.00;100475.28;5086925;28;19958;-78
2023/10/12 08:48:25;;;;;;;;;;;;;;;18.71;100.00;100468.13;5112534;28;19930;-78
2023/10/12 08:51:10;;;;;;;;;;;;;;;18.80;100.00;100465.22;5089250;28;19915;-78
2023/10/12 08:54:01;;;;;;;;;;;;;;;18.84;100.00;100472.63;5081758;28;19954;-78
2023/10/12 08:56:45;;;;;;;;;;;;;;;18.91;100.00;100472.84;5094672;28;19914;-78
2023/10/12 08:59:29;;;;;;;;;;;;;;;18.95;100.00;100473.00;5098131;28;20371;-79
2023/10/12 09:02:20;;;;;;;;;;;;;;;19.06;100.00;100476.97;5098473;28;19957;-78
2023/10/12 09:05:10;;;;;;;;;;;;;;;19.10;100.00;100477.91;5112449;28;19915;-78
2023/10/12 09:13:45;;;;;;;;;;;;;;;19.27;100.00;100485.28;5094301;28;19957;-78
2023/10/12 09:16:29;;;;;;;;;;;;;;;19.34;100.00;100484.69;5074450;28;19961;-78
2023/10/12 09:19:28;;;;;;;;;;;;;;;19.40;100.00;100475.63;5111668;28;19961;-78
2023/10/12 09:22:12;;;;;;;;;;;;;;;19.50;100.00;100467.88;5089210;28;20288;-78
2023/10/12 09:25:02;;;;;;;;;;;;;;;19.56;100.00;100475.72;5086512;28;20003;-78
2023/10/12 09:27:49;;;;;;;;;;;;;;;19.60;100.00;100475.84;5106358;28;20371;-78
2023/10/12 09:30:35;;;;;;;;;;;;;;;19.66;100.00;100468.81;5108343;28;20303;-78
2023/10/12 09:36:22;;;;;;;;;;;;;;;19.74;100.00;100476.28;5098521;28;19985;-78
2023/10/12 09:39:12;;;;;;;;;;;;;;;19.83;100.00;100482.59;5104429;28;19914;-78
2023/10/12 09:41:58;;;;;;;;;;;;;;;19.84;100.00;100477.78;5108700;28;20333;-78
2023/10/12 09:44:42;;;;;;;;;;;;;;;19.91;100.00;100485.63;5112316;28;19988;-78
2023/10/12 09:47:35;;;;;;;;;;;;;;;19.98;100.00;100477.41;5080590;28;19915;-79
2023/10/12 09:50:27;;;;;;;;;;;;;;;20.03;100.00;100474.28;5091684;28;19952;-78
2023/10/12 09:53:21;;;;;;;;;;;;;;;20.08;100.00;100474.84;5101378;28;19934;-78
2023/10/12 09:56:15;;;;;;;;;;;;;;;20.15;100.00;100468.63;5086356;28;20045;-78
2023/10/12 09:59:13;;;;;;;;;;;;;;;20.22;100.00;100468.78;5079895;28;19914;-79
2023/10/12 10:02:27;;;;;;;;;;;;;;;20.31;100.00;100466.66;5118463;28;19918;-78
2023/10/12 10:05:11;;;;;;;;;;;;;;;20.40;100.00;100463.66;5108370;28;19914;-78
2023/10/12 10:08:04;;;;;;;;;;;;;;;20.46;100.00;100473.50;5094103;28;20437;-78
2023/10/12 10:10:57;;;;;;;;;;;;;;;20.57;100.00;100467.34;5119168;28;20032;-78
2023/10/12 10:13:46;;;;;;;;;;;;;;;20.67;100.00;100472.44;5093871;28;19914;-79
2023/10/12 10:16:46;;;;;;;;;;;;;;;20.75;100.00;100466.63;5090329;28;20015;-78
2023/10/12 10:19:30;;;;;;;;;;;;;;;20.83;100.00;100463.97;5104254;28;19915;-75
2023/10/12 10:22:14;;;;;;;;;;;;;;;20.92;100.00;100473.06;5094910;28;19915;-75
2023/10/12 10:24:58;;;;;;;;;;;;;;;20.98;100.00;100474.47;5096359;28;19914;-75
2023/10/12 10:27:42;;;;;;;;;;;;;;;21.06;100.00;100479.09;5095254;28;19917;-75
2023/10/12 10:30:28;;;;;;;;;;;;;;;21.13;100.00;100470.78;5111730;28;19914;-73
2023/10/12 10:33:13;;;;;;;;;;;;;;;21.21;100.00;100474.59;5121864;27;19918;-74
2023/10/12 10:39:28;;;;;;;;;;;;;;;21.37;100.00;100466.94;5105366;28;20108;-73
2023/10/12 10:42:12;;;;;;;;;;;;;;;21.49;100.00;100456.72;5102946;28;20240;-74
2023/10/12 10:44:55;;;;;;;;;;;;;;;21.55;100.00;100458.84;5105403;28;20355;-74
2023/10/12 10:47:49;;;;;;;;;;;;;;;21.64;100.00;100464.28;5095649;27;19914;-74
2023/10/12 10:50:39;;;;;;;;;;;;;;;21.78;100.00;100466.59;5079118;28;19968;-74
2023/10/12 10:53:31;;;;;;;;;;;;;;;21.86;100.00;100466.38;5101619;28;20014;-74
2023/10/12 10:56:15;;;;;;;;;;;;;;;22.01;100.00;100475.19;5116018;28;19934;-74
2023/10/12 10:58:59;;;;;;;;;;;;;;;22.12;100.00;100483.88;5093397;28;19962;-74
2023/10/12 11:01:49;;;;;;;;;;;;;;;22.21;100.00;100478.84;5100657;28;19915;-74
2023/10/12 11:07:20;;;;;;;;;;;;;;;22.38;100.00;100484.03;5106594;28;20268;-74
2023/10/12 11:10:06;;;;;;;;;;;;;;;22.45;100.00;100486.16;5116232;28;20334;-74
2023/10/12 11:12:50;;;;;;;;;;;;;;;22.47;100.00;100481.75;5108357;28;19954;-74
2023/10/12 11:15:34;;;;;;;;;;;;;;;22.50;100.00;100483.84;5106045;28;20317;-74
2023/10/12 11:18:18;;;;;;;;;;;;;;;22.52;100.00;100472.97;5103905;28;19915;-74
2023/10/12 11:21:04;;;;;;;;;;;;;;;22.52;100.00;100481.47;5088831;28;20007;-74
2023/10/12 11:23:51;;;;;;;;;;;;;;;22.53;100.00;100470.94;5110406;28;19950;-74
2023/10/12 11:26:47;;;;;;;;;;;;;;;22.55;100.00;100467.75;5094458;28;19970;-74
2023/10/12 11:29:36;;;;;;;;;;;;;;;22.49;100.00;100459.56;5090145;28;19918;-74
2023/10/12 11:32:21;;;;;;;;;;;;;;;22.54;100.00;100469.78;5115532;27;19994;-74
2023/10/12 11:35:06;;;;;;;;;;;;;;;22.57;100.00;100460.53;5113810;28;19964;-74
2023/10/12 11:37:52;;;;;;;;;;;;;;;22.63;100.00;100458.19;5121539;28;19927;-74
2023/10/12 11:40:37;;;;;;;;;;;;;;;22.67;100.00;100459.06;5108457;28;19915;-74
2023/10/12 11:43:25;;;;;;;;;;;;;;;22.71;100.00;100463.59;5112291;28;19958;-74
2023/10/12 11:46:09;;;;;;;;;;;;;;;22.79;100.00;100453.22;5116227;28;19954;-74
2023/10/12 11:49:04;;;;;;;;;;;;;;;22.88;100.00;100452.97;5100998;28;19929;-74
2023/10/12 11:51:50;;;;;;;;;;;;;;;22.98;100.00;100458.00;5109175;28;19952;-74
2023/10/12 11:54:35;;;;;;;;;;;;;;;23.02;100.00;100458.88;5092685;28;19923;-74
2023/10/12 11:57:19;;;;;;;;;;;;;;;23.06;100.00;100464.59;5079463;28;20343;-74
2023/10/12 12:00:20;;;;;;;;;;;;;;;23.07;100.00;100454.94;5117116;28;20044;-74
2023/10/12 12:03:10;;;;;;;;;;;;;;;23.13;100.00;100461.91;5108462;28;19977;-74
2023/10/12 12:05:54;;;;;;;;;;;;;;;23.13;100.00;100467.56;5112773;28;20001;-74
2023/10/12 12:08:40;;;;;;;;;;;;;;;23.14;100.00;100470.00;5087832;28;19915;-74
2023/10/12 12:11:31;;;;;;;;;;;;;;;23.18;100.00;100465.22;5108503;28;19946;-74
2023/10/12 12:14:14;;;;;;;;;;;;;;;23.18;100.00;100458.75;5092330;28;19956;-74
2023/10/12 12:17:01;;;;;;;;;;;;;;;23.19;100.00;100457.53;5121033;28;20258;-74
2023/10/12 12:19:45;;;;;;;;;;;;;;;23.17;100.00;100454.25;5121032;28;19970;-74
2023/10/12 12:22:41;;;;;;;;;;;;;;;23.16;100.00;100458.28;5092099;28;19915;-74
2023/10/12 12:25:38;;;;;;;;;;;;;;;23.18;100.00;100447.41;5112894;28;19956;-74
2023/10/12 12:28:23;;;;;;;;;;;;;;;23.19;100.00;100443.38;5101939;28;20100;-74
2023/10/12 12:31:10;;;;;;;;;;;;;;;23.18;100.00;100442.56;5091761;28;19914;-74
2023/10/12 12:33:54;;;;;;;;;;;;;;;23.20;100.00;100451.47;5102414;28;20035;-74
2023/10/12 12:36:38;;;;;;;;;;;;;;;23.27;100.00;100447.94;5099456;28;19993;-74
2023/10/12 12:39:25;;;;;;;;;;;;;;;23.32;100.00;100441.16;5081488;28;19957;-74
2023/10/12 12:42:10;;;;;;;;;;;;;;;23.37;100.00;100429.44;5120902;28;19914;-74
2023/10/12 12:44:54;;;;;;;;;;;;;;;23.44;100.00;100428.75;5091817;28;19915;-74
2023/10/12 12:47:38;;;;;;;;;;;;;;;23.48;100.00;100423.94;5120289;28;20309;-74
2023/10/12 12:50:22;;;;;;;;;;;;;;;23.56;100.00;100429.31;5103885;28;19942;-74
2023/10/12 12:53:06;;;;;;;;;;;;;;;23.63;100.00;100429.41;5105352;28;20415;-74
2023/10/12 12:55:50;;;;;;;;;;;;;;;23.71;100.00;100432.34;5096860;28;19989;-74
2023/10/12 12:58:36;;;;;;;;;;;;;;;23.76;100.00;100432.84;5117584;28;19973;-74
2023/10/12 13:01:23;;;;;;;;;;;;;;;23.82;100.00;100419.97;5103191;28;19958;-74
2023/10/12 13:04:09;;;;;;;;;;;;;;;23.87;100.00;100418.78;5110629;28;20445;-74
2023/10/12 13:06:52;;;;;;;;;;;;;;;23.92;100.00;100423.31;5091091;28;20115;-74
2023/10/12 13:09:36;;;;;;;;;;;;;;;23.94;100.00;100423.75;5119171;28;19961;-74
2023/10/12 13:12:21;;;;;;;;;;;;;;;23.93;100.00;100417.28;5110736;28;19930;-74
2023/10/12 13:15:09;;;;;;;;;;;;;;;23.97;100.00;100417.31;5079399;28;19985;-74
2023/10/12 13:17:56;;;;;;;;;;;;;;;23.99;100.00;100424.22;5115922;28;19915;-74
2023/10/12 13:20:46;;;;;;;;;;;;;;;23.99;100.00;100423.41;5112133;28;19960;-74
2023/10/12 13:23:30;;;;;;;;;;;;;;;24.00;100.00;100425.03;5105484;28;20054;-74
2023/10/12 13:26:17;;;;;;;;;;;;;;;24.02;100.00;100417.78;5105447;28;20283;-74
2023/10/12 13:29:01;;;;;;;;;;;;;;;24.05;100.00;100421.84;5109093;28;19946;-74
2023/10/12 13:31:46;;;;;;;;;;;;;;;24.06;100.00;100423.47;5115073;27;19915;-74
2023/10/12 13:34:33;;;;;;;;;;;;;;;24.13;100.00;100431.25;5093980;28;19922;-74
2023/10/12 13:37:17;;;;;;;;;;;;;;;24.18;100.00;100413.88;5094814;28;20295;-74
2023/10/12 13:40:01;;;;;;;;;;;;;;;24.21;100.00;100416.75;5111109;28;19915;-74
2023/10/12 13:42:45;;;;;;;;;;;;;;;24.27;100.00;100426.56;5107650;28;19914;-74
2023/10/12 13:45:29;;;;;;;;;;;;;;;24.34;100.00;100428.63;5117033;28;20355;-74
2023/10/12 13:48:17;;;;;;;;;;;;;;;24.42;100.00;100436.00;5109182;28;19915;-74
2023/10/12 13:51:04;;;;;;;;;;;;;;;24.47;100.00;100432.84;5113544;28;20401;-74
2023/10/12 13:53:51;;;;;;;;;;;;;;;24.53;100.00;100427.63;5086020;28;19922;-74
2023/10/12 13:56:36;;;;;;;;;;;;;;;24.60;100.00;100436.22;5108655;28;19958;-74
2023/10/12 13:59:24;;;;;;;;;;;;;;;24.66;100.00;100440.34;5109015;28;19914;-74
2023/10/12 14:02:11;;;;;;;;;;;;;;;24.68;100.00;100439.94;5118820;28;19914;-74
2023/10/12 14:04:57;;;;;;;;;;;;;;;24.72;100.00;100433.09;5090412;28;20024;-74
2023/10/12 14:07:41;;;;;;;;;;;;;;;24.73;100.00;100425.38;5111409;28;19999;-74
2023/10/12 14:10:29;;;;;;;;;;;;;;;24.73;100.00;100429.03;5095782;28;20434;-74
2023/10/12 14:13:13;;;;;;;;;;;;;;;24.74;100.00;100427.03;5102680;28;20045;-74
2023/10/12 14:15:58;;;;;;;;;;;;;;;24.73;100.00;100426.19;5086647;28;19923;-74
2023/10/12 14:18:42;;;;;;;;;;;;;;;24.78;100.00;100418.53;5093119;28;19979;-74
2023/10/12 14:21:29;;;;;;;;;;;;;;;24.79;100.00;100426.63;5116793;28;19957;-74
2023/10/12 14:24:13;;;;;;;;;;;;;;;24.80;100.00;100418.97;5113674;28;19914;-74
2023/10/12 14:26:59;;;;;;;;;;;;;;;24.80;100.00;100425.44;5110631;28;19919;-74
2023/10/12 14:29:43;;;;;;;;;;;;;;;24.82;100.00;100416.53;5106494;28;19946;-74
2023/10/12 14:32:27;;;;;;;;;;;;;;;24.81;100.00;100404.34;5116989;27;19954;-74
2023/10/12 14:35:12;;;;;;;;;;;;;;;24.80;100.00;100407.59;5118499;28;20024;-74
2023/10/12 14:37:56;;;;;;;;;;;;;;;24.77;100.00;100408.34;5081093;28;19923;-74
2023/10/12 14:40:44;;;;;;;;;;;;;;;24.73;100.00;100405.50;5105118;28;19914;-74
2023/10/12 14:43:30;;;;;;;;;;;;;;;24.74;100.00;100393.75;5079025;28;19962;-74
2023/10/12 14:46:14;;;;;;;;;;;;;;;24.73;100.00;100402.66;5084602;28;19964;-74
2023/10/12 14:49:01;;;;;;;;;;;;;;;24.72;100.00;100399.00;5105072;28;19999;-74
2023/10/12 14:51:45;;;;;;;;;;;;;;;24.72;100.00;100403.88;5106721;28;19914;-74
2023/10/12 14:54:29;;;;;;;;;;;;;;;24.70;100.00;100395.75;5088460;28;19918;-74
2023/10/12 14:57:16;;;;;;;;;;;;;;;24.70;100.00;100380.72;5077010;28;20068;-74
2023/10/12 15:00:01;;;;;;;;;;;;;;;24.66;100.00;100389.22;5118157;28;19914;-74
2023/10/12 15:02:48;;;;;;;;;;;;;;;24.64;100.00;100373.78;5095265;28;19918;-73
2023/10/12 15:05:36;;;;;;;;;;;;;;;24.57;100.00;100377.38;5079827;28;20192;-74
2023/10/12 15:08:20;;;;;;;;;;;;;;;24.55;100.00;100368.44;5104085;28;19937;-73
2023/10/12 15:11:07;;;;;;;;;;;;;;;24.50;100.00;100368.81;5107911;28;19938;-73
2023/10/12 15:13:51;;;;;;;;;;;;;;;24.43;100.00;100371.53;5110280;28;19914;-73
2023/10/12 15:16:35;;;;;;;;;;;;;;;24.34;100.00;100369.03;5098891;28;19970;-74
2023/10/12 15:19:19;;;;;;;;;;;;;;;24.30;100.00;100369.00;5098731;28;19930;-74
2023/10/12 15:22:06;;;;;;;;;;;;;;;24.25;100.00;100375.03;5104172;28;19935;-72
2023/10/12 15:24:50;;;;;;;;;;;;;;;24.17;100.00;100381.84;5094410;28;19961;-74
2023/10/12 15:27:34;;;;;;;;;;;;;;;24.14;100.00;100370.47;5117856;28;20309;-74
2023/10/12 15:30:18;;;;;;;;;;;;;;;24.07;100.00;100371.19;5111587;28;20435;-74
2023/10/12 15:33:03;;;;;;;;;;;;;;;24.02;100.00;100377.25;5114246;28;19927;-74
2023/10/12 15:35:48;;;;;;;;;;;;;;;23.94;100.00;100373.50;5111434;28;20394;-74
2023/10/12 15:38:32;;;;;;;;;;;;;;;23.88;100.00;100369.41;5107054;28;19918;-74